createdAt,value
2017-06-14T00:00:45.262Z,100874.59
2017-06-14T00:03:15.041Z,100872.09
2017-06-14T00:05:44.733Z,100870.12
2017-06-14T00:08:14.485Z,100867.78
2017-06-14T00:10:44.178Z,100871.52
2017-06-14T00:13:14.759Z,100872.56
2017-06-14T00:15:44.445Z,100866.81
2017-06-14T00:18:14.136Z,100863.77
2017-06-14T00:20:43.850Z,100871.66
2017-06-14T00:23:13.539Z,100875.34
2017-06-14T00:25:43.273Z,100877.30
2017-06-14T00:28:12.970Z,100871.48
2017-06-14T00:30:42.699Z,100877.17
2017-06-14T00:33:13.322Z,100884.03
2017-06-14T00:35:43.041Z,100883.66
2017-06-14T00:38:12.788Z,100889.22
2017-06-14T00:40:42.617Z,100889.15
2017-06-14T00:43:12.298Z,100887.10
2017-06-14T00:45:41.997Z,100882.59
2017-06-14T00:48:11.733Z,100885.86
2017-06-14T00:50:41.469Z,100890.84
2017-06-14T00:53:12.014Z,100886.10
2017-06-14T00:55:41.693Z,100892.03
2017-06-14T00:58:11.489Z,100886.91
2017-06-14T01:00:41.169Z,100882.88
2017-06-14T01:03:10.935Z,100884.14
2017-06-14T01:05:40.622Z,100887.32
2017-06-14T01:08:10.329Z,100888.08
2017-06-14T01:18:24.672Z,100890.78
2017-06-14T01:20:54.460Z,100889.45
2017-06-14T01:23:24.187Z,100891.53
2017-06-14T01:25:53.836Z,100891.55
2017-06-14T01:28:23.500Z,100898.00
2017-06-14T01:30:53.144Z,100895.97
2017-06-14T01:33:22.821Z,100890.72
2017-06-14T01:35:52.477Z,100894.86
2017-06-14T01:38:22.141Z,100890.98
2017-06-14T01:40:51.811Z,100896.33
2017-06-14T01:43:21.459Z,100886.20
2017-06-14T01:45:51.177Z,100888.03
2017-06-14T01:48:20.865Z,100891.17
2017-06-14T01:50:50.164Z,100893.52
2017-06-14T01:53:19.852Z,100890.58
2017-06-14T01:55:49.497Z,100888.53
2017-06-14T01:58:19.259Z,100891.09
2017-06-14T02:00:48.908Z,100893.72
2017-06-14T02:03:18.591Z,100895.12
2017-06-14T02:05:50.035Z,100904.71
2017-06-14T02:08:21.100Z,100908.66
2017-06-14T02:10:50.833Z,100905.86
2017-06-14T02:13:20.486Z,100898.27
2017-06-14T02:15:50.136Z,100906.52
2017-06-14T02:18:19.808Z,100906.45
2017-06-14T02:20:49.455Z,100909.70
2017-06-14T02:23:19.172Z,100918.00
2017-06-14T02:25:48.846Z,100918.72
2017-06-14T02:28:18.499Z,100914.55
2017-06-14T02:30:48.189Z,100924.40
2017-06-14T02:33:17.903Z,100928.51
2017-06-14T02:35:47.666Z,100928.60
2017-06-14T02:38:17.320Z,100924.48
2017-06-14T02:40:47.081Z,100925.78
2017-06-14T02:43:16.756Z,100927.50
2017-06-14T02:45:47.252Z,100927.50
2017-06-14T02:48:16.955Z,100927.49
2017-06-14T02:50:47.476Z,100921.73
2017-06-14T02:53:17.664Z,100916.17
2017-06-14T02:55:47.297Z,100912.86
2017-06-14T02:58:16.971Z,100915.50
2017-06-14T03:00:46.670Z,100914.88
2017-06-14T03:03:16.380Z,100916.05
2017-06-14T03:05:46.085Z,100917.86
2017-06-14T03:08:18.684Z,100915.25
2017-06-14T03:10:48.360Z,100917.83
2017-06-14T03:13:18.024Z,100925.17
2017-06-14T03:15:47.670Z,100921.92
2017-06-14T03:18:17.353Z,100921.42
2017-06-14T03:20:52.357Z,100922.49
2017-06-14T03:23:22.221Z,100923.12
2017-06-14T03:25:51.912Z,100925.33
2017-06-14T03:28:21.565Z,100924.45
2017-06-14T03:30:51.231Z,100921.91
2017-06-14T03:33:20.929Z,100927.09
2017-06-14T03:35:50.633Z,100924.55
2017-06-14T03:38:20.277Z,100932.00
2017-06-14T03:40:49.933Z,100922.71
2017-06-14T03:43:19.661Z,100922.80
2017-06-14T03:45:50.000Z,100923.66
2017-06-14T03:48:23.630Z,100920.03
2017-06-14T03:50:53.333Z,100920.14
2017-06-14T03:53:22.988Z,100924.13
2017-06-14T03:55:53.025Z,100922.33
2017-06-14T03:58:23.633Z,100920.48
2017-06-14T04:00:53.464Z,100919.23
2017-06-14T04:03:23.143Z,100924.87
2017-06-14T04:05:52.807Z,100929.97
2017-06-14T04:08:22.511Z,100933.29
2017-06-14T04:10:52.166Z,100926.91
2017-06-14T04:13:22.743Z,100927.11
2017-06-14T04:15:53.762Z,100931.41
2017-06-14T04:18:23.744Z,100936.21
2017-06-14T04:20:54.676Z,100937.23
2017-06-14T04:23:24.663Z,100931.76
2017-06-14T04:25:54.381Z,100939.50
2017-06-14T04:28:24.025Z,100940.25
2017-06-14T04:31:01.327Z,100941.34
2017-06-14T04:33:31.249Z,100948.94
2017-06-14T04:36:00.965Z,100953.48
2017-06-14T04:38:30.712Z,100949.06
2017-06-14T04:41:00.442Z,100950.69
2017-06-14T04:43:30.962Z,100962.73
2017-06-14T04:46:01.780Z,100963.64
2017-06-14T04:48:32.395Z,100960.24
2017-06-14T04:51:02.087Z,100960.80
2017-06-14T04:53:31.749Z,100965.91
2017-06-14T04:56:01.410Z,100962.91
2017-06-14T04:58:31.084Z,100967.19
2017-06-14T05:01:00.822Z,100959.11
2017-06-14T05:03:30.480Z,100961.86
2017-06-14T05:06:00.202Z,100957.16
2017-06-14T05:08:29.900Z,100964.59
2017-06-14T05:11:00.188Z,100967.34
2017-06-14T05:13:31.372Z,100970.59
2017-06-14T05:16:03.995Z,100970.83
2017-06-14T05:18:35.576Z,100959.64
2017-06-14T05:21:06.817Z,100960.32
2017-06-14T05:23:37.977Z,100959.17
2017-06-14T05:26:09.263Z,100958.55
2017-06-14T05:28:40.018Z,100958.87
2017-06-14T05:31:12.681Z,100968.63
2017-06-14T05:33:45.656Z,100961.44
2017-06-14T05:36:15.953Z,100964.95
2017-06-14T05:38:49.739Z,100970.73
2017-06-14T05:41:21.777Z,100975.06
2017-06-14T05:43:52.650Z,100981.08
2017-06-14T05:46:23.606Z,100983.45
2017-06-14T05:48:54.064Z,100982.30
2017-06-14T05:51:24.234Z,100992.48
2017-06-14T05:53:55.744Z,100995.49
2017-06-14T05:56:28.204Z,100995.49
2017-06-14T05:58:59.731Z,101000.69
2017-06-14T06:01:30.742Z,101007.09
2017-06-14T06:04:01.047Z,101009.89
2017-06-14T06:06:31.158Z,101008.88
2017-06-14T06:09:03.178Z,101016.61
2017-06-14T06:11:33.778Z,101020.35
2017-06-14T06:14:05.262Z,101025.27
2017-06-14T06:16:36.069Z,101024.33
2017-06-14T06:19:08.542Z,101027.36
2017-06-14T06:21:39.647Z,101027.16
2017-06-14T06:24:09.930Z,101023.42
2017-06-14T06:26:42.272Z,101023.59
2017-06-14T06:29:12.547Z,101023.00
2017-06-14T06:31:42.259Z,101027.96
2017-06-14T06:34:11.999Z,101035.92
2017-06-14T06:36:43.380Z,101024.33
2017-06-14T06:39:16.250Z,101026.36
2017-06-14T06:41:45.978Z,101029.36
2017-06-14T06:44:16.385Z,101027.02
2017-06-14T06:46:46.117Z,101029.13
2017-06-14T06:49:15.806Z,101023.06
2017-06-14T06:51:46.322Z,101027.53
2017-06-14T06:54:16.038Z,101028.73
2017-06-14T06:56:45.740Z,101022.45
2017-06-14T06:59:15.468Z,101026.39
2017-06-14T07:01:45.181Z,101018.73
2017-06-14T07:04:14.857Z,101019.31
2017-06-14T07:06:44.242Z,101027.39
2017-06-14T07:09:14.439Z,101028.66
2017-06-14T07:11:45.015Z,101032.17
2017-06-14T07:14:14.518Z,101028.54
2017-06-14T07:16:45.080Z,101031.07
2017-06-14T07:19:14.752Z,101030.73
2017-06-14T07:21:44.782Z,101026.13
2017-06-14T07:24:14.549Z,101026.87
2017-06-14T07:26:44.225Z,101015.30
2017-06-14T07:29:14.051Z,101015.88
2017-06-14T07:31:43.750Z,101015.25
2017-06-14T07:34:13.460Z,101015.71
2017-06-14T07:36:43.163Z,101014.99
2017-06-14T07:39:12.846Z,101010.70
2017-06-14T07:41:42.825Z,101020.73
2017-06-14T07:44:12.509Z,101010.20
2017-06-14T07:46:42.190Z,101013.65
2017-06-14T07:49:11.973Z,101015.02
2017-06-14T07:51:42.499Z,101014.41
2017-06-14T07:54:12.342Z,101009.63
2017-06-14T07:56:42.044Z,101006.30
2017-06-14T07:59:11.950Z,101010.67
2017-06-14T08:01:41.977Z,100999.02
2017-06-14T08:04:11.735Z,101007.16
2017-06-14T08:06:42.058Z,101003.23
2017-06-14T08:09:11.778Z,101009.25
2017-06-14T08:11:42.281Z,101015.12
2017-06-14T08:14:12.059Z,101004.38
2017-06-14T08:16:41.797Z,101003.06
2017-06-14T08:19:11.531Z,100995.77
2017-06-14T08:21:41.256Z,100992.56
2017-06-14T08:24:10.958Z,100980.90
2017-06-14T08:26:40.778Z,100988.66
2017-06-14T08:29:10.462Z,100981.59
2017-06-14T08:31:40.253Z,100988.49
2017-06-14T08:34:09.951Z,100991.58
2017-06-14T08:36:39.697Z,100991.53
2017-06-14T08:39:10.453Z,100987.57
2017-06-14T08:41:40.186Z,100997.88
2017-06-14T08:44:09.999Z,100999.61
2017-06-14T08:46:39.693Z,101002.25
2017-06-14T08:49:09.382Z,101000.03
2017-06-14T08:51:39.112Z,100998.59
2017-06-14T08:54:08.870Z,100994.85
2017-06-14T08:56:38.650Z,100999.81
2017-06-14T08:59:08.391Z,100993.51
2017-06-14T09:01:38.105Z,101005.20
2017-06-14T09:04:07.902Z,100998.02
2017-06-14T09:06:37.647Z,100988.96
2017-06-14T09:09:07.484Z,100993.61
2017-06-14T09:11:38.828Z,100996.49
2017-06-14T09:14:10.264Z,101003.54
2017-06-14T09:16:40.895Z,100997.19
2017-06-14T09:19:13.359Z,100991.22
2017-06-14T09:21:45.217Z,101000.08
2017-06-14T09:24:15.987Z,100998.39
2017-06-14T09:26:47.023Z,100995.02
2017-06-14T09:29:18.710Z,100994.70
2017-06-14T09:31:49.369Z,100993.56
2017-06-14T09:34:20.411Z,100989.47
2017-06-14T09:36:52.049Z,100987.55
2017-06-14T09:39:22.950Z,100982.56
2017-06-14T09:41:53.370Z,100975.42
2017-06-14T09:44:23.339Z,100979.51
2017-06-14T09:46:54.408Z,100976.44
2017-06-14T09:49:25.822Z,100975.27
2017-06-14T09:51:56.546Z,100976.28
2017-06-14T09:54:26.801Z,100978.16
2017-06-14T09:56:56.593Z,100981.38
2017-06-14T09:59:28.566Z,100982.23
2017-06-14T10:01:59.516Z,100966.78
2017-06-14T10:04:31.261Z,100973.72
2017-06-14T10:07:02.731Z,100970.88
2017-06-14T10:09:35.425Z,100971.90
2017-06-14T10:12:07.258Z,100964.25
2017-06-14T10:14:37.789Z,100951.41
2017-06-14T10:17:08.615Z,100956.41
2017-06-14T10:19:39.073Z,100961.31
2017-06-14T10:22:08.838Z,100966.93
2017-06-14T10:24:41.562Z,100967.89
2017-06-14T10:27:15.817Z,100969.95
2017-06-14T10:29:45.550Z,100967.03
2017-06-14T10:32:15.225Z,100957.94
2017-06-14T10:34:44.929Z,100960.41
2017-06-14T10:37:14.670Z,100952.25
2017-06-14T10:39:44.369Z,100945.28
2017-06-14T10:42:14.130Z,100952.75
2017-06-14T10:44:43.857Z,100952.34
2017-06-14T10:47:13.549Z,100946.74
2017-06-14T10:49:43.265Z,100944.05
2017-06-14T10:52:12.984Z,100940.09
2017-06-14T10:54:42.786Z,100935.00
2017-06-14T10:57:12.595Z,100923.20
2017-06-14T10:59:42.609Z,100935.64
2017-06-14T11:02:12.366Z,100939.22
2017-06-14T11:04:42.089Z,100934.06
2017-06-14T11:07:11.861Z,100931.41
2017-06-14T11:09:41.562Z,100926.14
2017-06-14T11:12:11.253Z,100929.77
2017-06-14T11:14:40.989Z,100924.44
2017-06-14T11:17:10.682Z,100916.20
2017-06-14T11:19:40.416Z,100913.23
2017-06-14T11:22:10.126Z,100917.31
2017-06-14T11:24:39.853Z,100909.79
2017-06-14T11:27:11.266Z,100909.91
2017-06-14T11:29:42.845Z,100911.84
2017-06-14T11:32:13.515Z,100915.13
2017-06-14T11:34:43.736Z,100908.61
2017-06-14T11:37:13.482Z,100906.92
2017-06-14T11:39:43.189Z,100908.25
2017-06-14T11:42:12.872Z,100900.79
2017-06-14T11:44:42.588Z,100904.38
2017-06-14T11:47:12.357Z,100904.13
2017-06-14T11:49:42.101Z,100882.66
2017-06-14T11:52:11.847Z,100889.86
2017-06-14T11:54:41.551Z,100892.95
2017-06-14T11:57:11.262Z,100884.76
2017-06-14T11:59:41.016Z,100879.56
2017-06-14T12:02:10.762Z,100873.31
2017-06-14T12:04:40.462Z,100875.88
2017-06-14T12:07:10.222Z,100870.20
2017-06-14T12:09:40.758Z,100881.26
2017-06-14T12:12:10.454Z,100879.03
2017-06-14T12:14:40.193Z,100878.48
2017-06-14T12:17:09.902Z,100876.94
2017-06-14T12:19:39.633Z,100885.26
2017-06-14T12:22:09.312Z,100880.24
2017-06-14T12:24:39.031Z,100879.53
2017-06-14T12:27:08.801Z,100878.09
2017-06-14T12:29:45.513Z,100883.26
2017-06-14T12:32:15.741Z,100875.89
2017-06-14T12:34:45.434Z,100871.64
2017-06-14T12:37:15.097Z,100879.02
2017-06-14T12:39:44.814Z,100875.54
2017-06-14T12:42:14.495Z,100876.16
2017-06-14T12:44:44.209Z,100872.53
2017-06-14T12:47:13.888Z,100871.25
2017-06-14T12:49:43.601Z,100860.87
2017-06-14T12:52:13.301Z,100866.23
2017-06-14T12:54:42.986Z,100866.80
2017-06-14T12:57:12.814Z,100867.28
2017-06-14T12:59:42.489Z,100860.48
2017-06-14T13:02:12.280Z,100857.37
2017-06-14T13:04:41.989Z,100867.84
2017-06-14T13:07:11.719Z,100869.16
2017-06-14T13:09:41.532Z,100870.11
2017-06-14T13:12:11.226Z,100866.27
2017-06-14T13:14:41.008Z,100862.41
2017-06-14T13:17:10.715Z,100859.50
2017-06-14T13:19:40.444Z,100857.21
2017-06-14T13:22:10.181Z,100857.39
2017-06-14T13:24:39.865Z,100859.48
2017-06-14T13:27:09.608Z,100864.40
2017-06-14T13:29:39.324Z,100868.42
2017-06-14T13:32:12.182Z,100856.58
2017-06-14T13:34:41.899Z,100855.73
2017-06-14T13:37:11.573Z,100854.81
2017-06-14T13:39:41.283Z,100849.56
2017-06-14T13:42:10.989Z,100846.63
2017-06-14T13:44:40.674Z,100846.67
2017-06-14T13:47:10.411Z,100843.10
2017-06-14T13:49:40.086Z,100843.66
2017-06-14T13:52:09.766Z,100845.36
2017-06-14T13:54:39.480Z,100846.31
2017-06-14T13:57:09.992Z,100849.28
2017-06-14T13:59:39.724Z,100836.91
2017-06-14T14:02:09.445Z,100838.67
2017-06-14T14:04:39.152Z,100837.83
2017-06-14T14:07:08.913Z,100834.06
2017-06-14T14:09:38.700Z,100828.60
2017-06-14T14:12:08.490Z,100829.41
2017-06-14T14:14:38.169Z,100827.95
2017-06-14T14:17:07.913Z,100825.19
2017-06-14T14:19:37.639Z,100826.44
2017-06-14T14:22:07.375Z,100823.22
2017-06-14T14:24:37.102Z,100820.32
2017-06-14T14:27:06.814Z,100822.45
2017-06-14T14:29:36.493Z,100815.19
2017-06-14T14:32:06.210Z,100814.88
2017-06-14T14:34:35.936Z,100815.60
2017-06-14T14:37:05.665Z,100814.34
2017-06-14T14:39:35.416Z,100803.11
2017-06-14T14:42:05.093Z,100810.64
2017-06-14T14:44:34.807Z,100804.00
2017-06-14T14:47:04.473Z,100802.69
2017-06-14T14:49:34.184Z,100802.74
2017-06-14T14:52:03.847Z,100802.48
2017-06-14T14:54:33.556Z,100791.05
2017-06-14T14:57:03.229Z,100790.76
2017-06-14T14:59:32.942Z,100794.14
2017-06-14T15:02:02.638Z,100785.67
2017-06-14T15:04:32.330Z,100784.90
2017-06-14T15:07:02.009Z,100778.20
2017-06-14T15:09:31.745Z,100781.57
2017-06-14T15:12:01.438Z,100776.37
2017-06-14T15:14:31.147Z,100781.88
2017-06-14T15:17:00.813Z,100765.97
2017-06-14T15:19:30.510Z,100769.37
2017-06-14T15:22:00.194Z,100763.88
2017-06-14T15:24:29.899Z,100762.16
2017-06-14T15:26:59.579Z,100762.00
2017-06-14T15:29:29.322Z,100762.00
2017-06-14T15:31:59.017Z,100756.48
2017-06-14T15:34:28.719Z,100753.53
2017-06-14T15:36:58.405Z,100753.67
2017-06-14T15:39:28.083Z,100751.87
2017-06-14T15:41:57.802Z,100754.30
2017-06-14T15:44:27.490Z,100753.65
2017-06-14T15:46:57.181Z,100756.89
2017-06-14T15:49:26.861Z,100755.58
2017-06-14T15:51:56.578Z,100753.52
2017-06-14T15:54:26.253Z,100749.91
2017-06-14T15:56:57.029Z,100747.27
2017-06-14T15:59:27.408Z,100739.78
2017-06-14T16:01:57.132Z,100744.31
2017-06-14T16:04:26.863Z,100739.28
2017-06-14T16:06:56.585Z,100741.48
2017-06-14T16:09:26.277Z,100743.70
2017-06-14T16:11:56.047Z,100743.94
2017-06-14T16:14:25.774Z,100739.34
2017-06-14T16:16:55.534Z,100735.86
2017-06-14T16:19:25.222Z,100740.38
2017-06-14T16:21:54.901Z,100739.19
2017-06-14T16:24:24.646Z,100732.89
2017-06-14T16:26:54.345Z,100741.66
2017-06-14T16:29:24.060Z,100738.54
2017-06-14T16:31:53.755Z,100733.38
2017-06-14T16:34:23.477Z,100740.66
2017-06-14T16:36:53.156Z,100733.96
2017-06-14T16:39:22.877Z,100737.92
2017-06-14T16:42:01.754Z,100740.57
2017-06-14T16:44:42.077Z,100738.73
2017-06-14T16:47:24.316Z,100735.84
2017-06-14T16:50:06.060Z,100726.47
2017-06-14T16:52:48.240Z,100729.61
2017-06-14T16:55:30.370Z,100732.48
2017-06-14T16:58:09.289Z,100730.27
2017-06-14T17:00:53.638Z,100733.80
2017-06-14T17:03:35.624Z,100727.08
2017-06-14T17:06:17.950Z,100722.31
2017-06-14T17:08:51.029Z,100723.86
2017-06-14T17:11:20.433Z,100730.47
2017-06-14T17:13:50.119Z,100725.22
2017-06-14T17:16:19.837Z,100725.81
2017-06-14T17:18:58.938Z,100719.02
2017-06-14T17:21:40.243Z,100728.84
2017-06-14T17:24:21.217Z,100727.98
2017-06-14T17:27:02.653Z,100722.98
2017-06-14T17:29:38.831Z,100727.83
2017-06-14T17:32:18.760Z,100728.55
2017-06-14T17:34:59.525Z,100720.95
2017-06-14T17:37:40.179Z,100719.94
2017-06-14T17:40:23.063Z,100719.88
2017-06-14T17:43:07.031Z,100720.79
2017-06-14T17:45:50.052Z,100718.27
2017-06-14T17:48:23.844Z,100716.02
2017-06-14T17:51:04.576Z,100721.33
2017-06-14T17:53:44.251Z,100728.66
2017-06-14T17:56:28.343Z,100719.44
2017-06-14T17:59:09.363Z,100724.03
2017-06-14T18:01:55.111Z,100717.63
2017-06-14T18:04:37.623Z,100714.03
2017-06-14T18:07:14.760Z,100705.28
2017-06-14T18:09:47.112Z,100708.56
2017-06-14T18:12:16.845Z,100706.81
2017-06-14T18:14:46.565Z,100710.09
2017-06-14T18:17:16.298Z,100708.72
2017-06-14T18:19:45.988Z,100707.77
2017-06-14T18:22:15.725Z,100705.53
2017-06-14T18:24:45.397Z,100703.46
2017-06-14T18:27:15.080Z,100706.38
2017-06-14T18:29:44.793Z,100705.39
2017-06-14T18:32:14.465Z,100706.42
2017-06-14T18:34:44.455Z,100704.81
2017-06-14T18:37:14.134Z,100710.89
2017-06-14T18:39:44.016Z,100701.64
2017-06-14T18:42:13.749Z,100709.73
2017-06-14T18:44:48.461Z,100706.17
2017-06-14T18:47:22.554Z,100707.86
2017-06-14T18:49:52.310Z,100703.78
2017-06-14T18:52:21.994Z,100708.70
2017-06-14T18:54:51.731Z,100709.25
2017-06-14T18:57:21.437Z,100703.91
2017-06-14T18:59:51.248Z,100708.02
2017-06-14T19:02:21.774Z,100704.59
2017-06-14T19:04:51.505Z,100706.84
2017-06-14T19:07:21.264Z,100708.34
2017-06-14T19:09:50.962Z,100707.47
2017-06-14T19:12:20.727Z,100709.23
2017-06-14T19:14:51.102Z,100714.32
2017-06-14T19:17:31.280Z,100719.70
2017-06-14T19:20:08.418Z,100727.69
2017-06-14T19:22:51.196Z,100717.84
2017-06-14T19:25:25.610Z,100725.67
2017-06-14T19:28:04.539Z,100724.38
2017-06-14T19:30:45.248Z,100721.49
2017-06-14T19:33:25.369Z,100729.67
2017-06-14T19:36:04.450Z,100731.72
2017-06-14T19:38:47.826Z,100738.92
2017-06-14T19:41:30.878Z,100737.62
2017-06-14T19:44:14.290Z,100743.21
2017-06-14T19:46:54.070Z,100742.37
2017-06-14T19:49:32.937Z,100736.94
2017-06-14T19:52:16.750Z,100739.64
2017-06-14T19:55:01.238Z,100743.74
2017-06-14T19:57:36.668Z,100748.87
2017-06-14T20:00:07.222Z,100741.44
2017-06-14T20:02:38.927Z,100750.81
2017-06-14T20:05:11.514Z,100746.78
2017-06-14T20:07:44.555Z,100750.09
2017-06-14T20:10:17.934Z,100750.55
2017-06-14T20:12:49.827Z,100745.98
2017-06-14T20:15:22.628Z,100741.61
2017-06-14T20:17:55.301Z,100742.38
2017-06-14T20:20:29.926Z,100741.09
2017-06-14T20:23:02.655Z,100747.92
2017-06-14T20:25:36.373Z,100745.41
2017-06-14T20:28:06.901Z,100746.89
2017-06-14T20:30:36.626Z,100744.39
2017-06-14T20:33:06.345Z,100751.19
2017-06-14T20:35:36.022Z,100755.45
2017-06-14T20:38:06.023Z,100752.13
2017-06-14T20:40:36.325Z,100752.55
2017-06-14T20:43:07.045Z,100756.42
2017-06-14T20:45:36.908Z,100751.68
2017-06-14T20:48:09.187Z,100750.69
2017-06-14T20:50:38.850Z,100748.28
2017-06-14T20:53:08.846Z,100744.31
2017-06-14T20:55:38.554Z,100749.77
2017-06-14T20:58:08.381Z,100750.58
2017-06-14T21:00:38.150Z,100753.28
2017-06-14T21:03:09.876Z,100751.79
2017-06-14T21:05:41.122Z,100750.96
2017-06-14T21:08:12.400Z,100753.02
2017-06-14T21:10:42.835Z,100758.42
2017-06-14T21:13:12.571Z,100760.98
2017-06-14T21:15:42.232Z,100770.98
2017-06-14T21:18:11.930Z,100769.61
2017-06-14T21:20:41.678Z,100771.23
2017-06-14T21:23:11.383Z,100777.79
2017-06-14T21:25:41.126Z,100774.41
2017-06-14T21:28:10.827Z,100769.70
2017-06-14T21:30:40.543Z,100768.75
2017-06-14T21:33:10.288Z,100782.59
2017-06-14T21:35:39.979Z,100774.37
2017-06-14T21:38:09.709Z,100772.05
2017-06-14T21:40:39.427Z,100774.19
2017-06-14T21:43:09.160Z,100773.29
2017-06-14T21:45:38.866Z,100769.56
2017-06-14T21:48:09.177Z,100770.38
2017-06-14T21:50:38.939Z,100777.14
2017-06-14T21:53:08.675Z,100780.47
2017-06-14T21:55:38.351Z,100777.19
2017-06-14T21:58:15.350Z,100776.23
2017-06-14T22:00:47.609Z,100786.20
2017-06-14T22:03:17.307Z,100781.76
2017-06-14T22:05:46.989Z,100785.86
2017-06-14T22:08:16.698Z,100782.02
2017-06-14T22:10:46.377Z,100790.01
2017-06-14T22:15:51.726Z,100791.73
2017-06-14T22:18:21.396Z,100795.28
2017-06-14T22:20:51.094Z,100794.79
2017-06-14T22:23:20.761Z,100791.04
2017-06-14T22:25:50.462Z,100795.53
2017-06-14T22:28:20.187Z,100788.63
2017-06-14T22:30:49.929Z,100799.20
2017-06-14T22:33:19.616Z,100803.55
2017-06-14T22:35:49.294Z,100804.72
2017-06-14T22:38:18.988Z,100810.73
2017-06-14T22:40:48.654Z,100810.05
2017-06-14T22:43:18.431Z,100808.92
2017-06-14T22:45:48.099Z,100805.15
2017-06-14T22:48:17.830Z,100808.34
2017-06-14T22:50:47.532Z,100805.07
2017-06-14T22:53:17.229Z,100804.53
2017-06-14T22:55:46.918Z,100805.93
2017-06-14T22:58:24.433Z,100805.14
2017-06-14T23:01:00.132Z,100806.36
2017-06-14T23:03:29.802Z,100794.36
2017-06-14T23:05:59.565Z,100800.86
2017-06-14T23:08:29.236Z,100797.82
2017-06-14T23:10:58.938Z,100799.61
2017-06-14T23:13:29.550Z,100792.97
2017-06-14T23:16:07.354Z,100785.77
2017-06-14T23:18:36.714Z,100783.55
2017-06-14T23:21:06.403Z,100788.03
2017-06-14T23:23:36.120Z,100781.22
2017-06-14T23:26:05.797Z,100778.95
2017-06-14T23:28:35.492Z,100782.66
2017-06-14T23:31:05.189Z,100776.53
2017-06-14T23:33:34.889Z,100779.91
2017-06-14T23:36:04.589Z,100787.53
2017-06-14T23:38:34.313Z,100789.97
2017-06-14T23:41:04.037Z,100790.73
2017-06-14T23:43:33.717Z,100788.66
2017-06-14T23:46:03.394Z,100784.23
2017-06-14T23:48:33.097Z,100787.36
2017-06-14T23:51:02.852Z,100782.37
2017-06-14T23:53:32.568Z,100780.11
2017-06-14T23:56:02.250Z,100780.87
2017-06-14T23:58:31.954Z,100778.23
